Time;durP1;ratioP1;P1;durP2;ratioP2;P2;SDS_P1;SDS_P2;PMS_P1;PMS_P2;Temp;Humidity;BMP_temperature;BMP_pressure;BME280_temperature;BME280_humidity;BME280_pressure;Samples;Min_cycle;Max_cycle;Signal;HPM_P1;HPM_P2
2023/01/04 00:05:06;;;;;;;4.97;4.57;;;6.70;99.90;;;;;;5060834;28;20206;-88
2023/01/04 00:07:32;;;;;;;5.90;5.03;;;6.60;99.90;;;;;;5057335;28;20248;-89
2023/01/04 00:09:57;;;;;;;5.70;4.73;;;6.70;99.90;;;;;;5059240;28;20192;-91
2023/01/04 00:12:23;;;;;;;4.83;4.43;;;6.80;99.90;;;;;;5053277;28;20216;-89
2023/01/04 00:14:49;;;;;;;6.07;5.13;;;7.00;99.90;;;;;;5049844;28;20231;-90
2023/01/04 00:17:14;;;;;;;5.40;4.90;;;7.10;99.90;;;;;;5049946;28;20191;-89
2023/01/04 00:19:40;;;;;;;5.37;4.87;;;7.10;99.90;;;;;;5049112;28;20196;-89
2023/01/04 00:22:06;;;;;;;5.63;5.13;;;7.10;99.90;;;;;;5057457;28;20269;-93
2023/01/04 00:24:31;;;;;;;5.00;4.60;;;7.20;99.90;;;;;;5061888;28;20169;-92
2023/01/04 00:26:57;;;;;;;5.40;4.90;;;7.30;99.90;;;;;;5061688;28;20200;-93
2023/01/04 00:29:23;;;;;;;5.30;4.80;;;7.40;99.90;;;;;;5062941;28;20185;-93
2023/01/04 00:31:49;;;;;;;6.77;5.17;;;7.40;99.90;;;;;;5061542;28;20217;-93
2023/01/04 00:34:16;;;;;;;6.10;5.27;;;7.50;99.90;;;;;;5057005;28;20201;-88
2023/01/04 00:36:42;;;;;;;5.17;4.77;;;7.60;99.90;;;;;;5059977;28;20196;-89
2023/01/04 00:39:14;;;;;;;5.23;4.73;;;7.60;99.90;;;;;;5050968;28;20212;-89
2023/01/04 00:41:47;;;;;;;5.30;4.30;;;7.50;99.90;;;;;;5050732;28;20221;-88
2023/01/04 00:44:14;;;;;;;5.23;4.73;;;7.50;99.90;;;;;;5052870;28;20181;-88
2023/01/04 00:46:41;;;;;;;5.03;4.63;;;7.30;99.90;;;;;;5056242;28;20212;-90
2023/01/04 00:49:08;;;;;;;5.03;4.53;;;7.20;99.90;;;;;;5047179;28;20189;-89
2023/01/04 00:51:35;;;;;;;5.13;4.73;;;7.20;99.90;;;;;;5051177;28;20551;-90
2023/01/04 00:54:03;;;;;;;5.10;4.60;;;7.10;99.90;;;;;;5046601;28;20183;-89
2023/01/04 00:56:29;;;;;;;5.10;4.60;;;7.00;99.90;;;;;;5050803;28;20255;-88
2023/01/04 00:58:57;;;;;;;4.70;4.30;;;7.10;99.90;;;;;;5054485;28;20176;-89
2023/01/04 01:01:23;;;;;;;4.70;4.30;;;7.10;99.90;;;;;;5050843;28;20204;-89
2023/01/04 01:04:01;;;;;;;5.00;4.60;;;7.20;99.90;;;;;;5059415;28;20184;-89
2023/01/04 01:06:28;;;;;;;5.40;4.97;;;7.20;99.90;;;;;;5060805;28;20184;-89
2023/01/04 01:08:54;;;;;;;6.13;4.97;;;7.10;99.90;;;;;;5067608;28;20176;-89
2023/01/04 01:11:20;;;;;;;4.87;4.33;;;7.00;99.90;;;;;;5059921;28;20212;-88
2023/01/04 01:13:46;;;;;;;5.13;4.53;;;7.00;99.90;;;;;;5062480;28;20188;-89
2023/01/04 01:16:15;;;;;;;5.27;4.87;;;7.00;99.90;;;;;;5054125;28;20185;-89
2023/01/04 01:18:44;;;;;;;5.00;4.60;;;6.90;99.90;;;;;;5061592;28;20269;-89
2023/01/04 01:21:17;;;;;;;5.33;4.80;;;6.80;99.90;;;;;;5066734;28;20303;-91
2023/01/04 01:23:43;;;;;;;5.70;5.20;;;6.80;99.90;;;;;;5059693;28;20210;-88
2023/01/04 01:26:13;;;;;;;6.50;5.67;;;6.70;99.90;;;;;;5047834;28;20228;-90
2023/01/04 01:28:39;;;;;;;6.50;5.90;;;6.60;99.90;;;;;;5064956;28;20250;-90
2023/01/04 01:31:09;;;;;;;7.30;6.60;;;6.40;99.90;;;;;;5060567;28;20247;-89
2023/01/04 01:33:39;;;;;;;8.47;6.80;;;6.20;99.90;;;;;;5065414;28;20670;-90
2023/01/04 01:36:06;;;;;;;8.20;7.40;;;6.00;99.90;;;;;;5062830;28;20201;-90
2023/01/04 01:38:32;;;;;;;7.87;7.17;;;5.90;99.90;;;;;;5056029;28;20192;-89
2023/01/04 01:40:58;;;;;;;8.53;7.70;;;5.70;99.90;;;;;;5052153;28;20216;-89
2023/01/04 01:44:03;;;;;;;9.57;8.63;;;5.60;99.90;;;;;;5057255;28;20190;-88
2023/01/04 01:46:35;;;;;;;9.20;8.23;;;5.50;99.90;;;;;;5019637;28;20195;-89
2023/01/04 01:49:19;;;;;;;9.17;8.27;;;5.40;99.90;;;;;;5057891;28;20192;-91
2023/01/04 01:51:45;;;;;;;9.20;8.30;;;5.40;99.90;;;;;;5054682;28;20208;-89
2023/01/04 01:54:16;;;;;;;10.30;9.30;;;5.30;99.90;;;;;;5053669;28;20200;-88
2023/01/04 01:56:45;;;;;;;10.83;9.80;;;5.40;99.90;;;;;;5051765;28;20204;-89
2023/01/04 01:59:12;;;;;;;11.10;9.73;;;5.30;99.90;;;;;;5061015;28;20248;-89
2023/01/04 02:01:38;;;;;;;10.93;9.87;;;5.30;99.90;;;;;;5051678;28;20230;-89
2023/01/04 02:04:04;;;;;;;10.83;9.73;;;5.20;99.90;;;;;;5063868;28;20184;-90
2023/01/04 02:06:40;;;;;;;11.23;10.13;;;5.30;99.90;;;;;;5056842;28;20180;-89
2023/01/04 02:09:06;;;;;;;10.30;9.20;;;5.40;99.90;;;;;;5037927;28;20192;-89
2023/01/04 02:11:32;;;;;;;12.23;10.40;;;5.40;99.90;;;;;;5050307;28;20216;-89
2023/01/04 02:16:52;;;;;;;11.67;10.43;;;5.50;99.90;;;;;;5055000;28;20203;-88
2023/01/04 02:19:36;;;;;;;12.80;11.50;;;5.60;99.90;;;;;;5062785;28;20181;-91
2023/01/04 02:22:36;;;;;;;15.80;12.83;;;5.30;99.90;;;;;;5055894;28;20227;-88
2023/01/04 02:25:14;;;;;;;15.10;12.83;;;5.30;99.90;;;;;;5055176;28;20203;-90
2023/01/04 02:27:48;;;;;;;15.07;13.43;;;5.30;99.90;;;;;;5055867;28;20191;-90
2023/01/04 02:30:30;;;;;;;15.27;13.70;;;5.10;99.90;;;;;;5053515;28;20207;-89
2023/01/04 02:33:34;;;;;;;15.03;13.50;;;5.20;99.90;;;;;;5056763;28;20188;-88
2023/01/04 02:36:05;;;;;;;17.10;13.80;;;5.20;99.90;;;;;;4977849;28;20281;-89
2023/01/04 02:38:54;;;;;;;15.80;14.13;;;5.20;99.90;;;;;;4976084;28;20234;-89
2023/01/04 02:41:20;;;;;;;15.53;13.30;;;5.40;99.90;;;;;;5026919;28;20297;-89
2023/01/04 02:47:03;;;;;;;14.03;12.27;;;5.50;99.90;;;;;;5059088;28;20196;-90
2023/01/04 02:52:13;;;;;;;15.80;13.57;;;5.30;99.90;;;;;;5057963;28;20709;-89
2023/01/04 02:54:40;;;;;;;19.00;16.47;;;5.40;99.90;;;;;;5057054;28;20201;-88
2023/01/04 02:57:25;;;;;;;17.83;15.20;;;5.40;99.90;;;;;;5051179;28;20243;-89
2023/01/04 03:00:30;;;;;;;16.83;14.40;;;5.40;99.90;;;;;;5054107;28;20192;-89
2023/01/04 03:06:14;;;;;;;16.10;13.10;;;5.40;99.90;;;;;;5064053;28;20237;-88
2023/01/04 03:08:45;;;;;;;16.27;13.03;;;5.50;99.90;;;;;;5058133;28;20188;-89
2023/01/04 03:14:26;;;;;;;22.57;15.77;;;5.60;99.90;;;;;;5057175;28;20215;-88
2023/01/04 03:16:53;;;;;;;18.77;16.00;;;5.50;99.90;;;;;;5052887;28;20204;-88
2023/01/04 03:35:21;;;;;;;22.33;16.73;;;5.50;99.90;;;;;;5052120;28;20235;-89
2023/01/04 03:36:26;;;;;;;15.83;13.07;;;5.70;99.90;;;;;;5057067;28;20194;-88
2023/01/04 03:50:49;;;;;;;16.30;12.70;;;5.60;99.90;;;;;;5062696;28;20214;-88
2023/01/04 03:53:16;;;;;;;15.53;12.13;;;5.70;99.90;;;;;;5059170;28;20185;-90
2023/01/04 03:55:43;;;;;;;13.13;11.67;;;5.70;99.90;;;;;;5064778;28;20291;-88
2023/01/04 03:58:10;;;;;;;13.37;11.90;;;5.80;99.90;;;;;;5061461;28;20204;-89
2023/01/04 04:00:36;;;;;;;15.03;13.03;;;5.70;99.90;;;;;;5053701;28;20272;-90
2023/01/04 04:03:06;;;;;;;15.07;12.43;;;5.70;99.90;;;;;;5066673;28;20180;-87
2023/01/04 04:08:28;;;;;;;14.27;11.73;;;5.80;99.90;;;;;;5050829;28;20206;-87
2023/01/04 04:10:56;;;;;;;13.23;11.37;;;5.70;99.90;;;;;;5059061;28;20222;-89
2023/01/04 04:13:22;;;;;;;13.67;11.00;;;5.70;99.90;;;;;;5057423;28;20335;-90
2023/01/04 04:15:48;;;;;;;15.20;11.47;;;5.70;99.90;;;;;;5055400;28;20196;-90
2023/01/04 04:18:13;;;;;;;12.37;10.70;;;5.70;99.90;;;;;;5051747;28;20185;-89
2023/01/04 04:20:39;;;;;;;12.87;10.30;;;5.80;99.90;;;;;;5053933;28;20197;-88
2023/01/04 04:23:05;;;;;;;11.43;9.97;;;5.90;99.90;;;;;;5055229;28;20822;-88
2023/01/04 04:25:31;;;;;;;10.90;9.27;;;5.80;99.90;;;;;;5062540;28;20601;-90
2023/01/04 04:27:56;;;;;;;12.63;9.43;;;5.90;99.90;;;;;;5045284;28;20192;-87
2023/01/04 04:30:22;;;;;;;12.50;9.17;;;5.90;99.90;;;;;;5059173;28;20200;-89
2023/01/04 04:32:48;;;;;;;8.60;7.50;;;6.00;99.90;;;;;;5068750;28;20204;-88
2023/01/04 04:35:13;;;;;;;9.87;7.77;;;6.00;99.90;;;;;;5064364;28;20177;-90
2023/01/04 04:37:39;;;;;;;7.40;6.70;;;6.00;99.90;;;;;;5058169;28;20225;-91
2023/01/04 04:40:05;;;;;;;7.67;6.93;;;6.00;99.90;;;;;;5070347;28;20185;-91
2023/01/04 04:42:31;;;;;;;7.00;6.20;;;6.00;99.90;;;;;;5062082;28;20220;-87
2023/01/04 04:44:57;;;;;;;7.33;5.70;;;6.10;99.90;;;;;;5058729;28;20188;-87
2023/01/04 04:47:22;;;;;;;5.97;5.20;;;6.20;99.90;;;;;;5054158;28;20192;-87
2023/01/04 04:49:48;;;;;;;5.40;4.90;;;6.20;99.90;;;;;;5052026;28;20192;-88
2023/01/04 04:52:14;;;;;;;5.30;4.60;;;6.30;99.90;;;;;;5061860;28;20246;-91
2023/01/04 04:54:39;;;;;;;4.93;4.40;;;6.30;99.90;;;;;;5055116;28;20397;-90
2023/01/04 04:57:05;;;;;;;4.30;3.90;;;6.40;99.90;;;;;;5048058;28;20205;-87
2023/01/04 04:59:31;;;;;;;4.40;3.63;;;6.40;99.90;;;;;;5052505;28;20223;-88
2023/01/04 05:01:56;;;;;;;4.63;3.53;;;6.50;99.90;;;;;;5058652;28;20262;-88
2023/01/04 05:04:22;;;;;;;5.50;3.60;;;6.50;99.90;;;;;;5048587;28;20264;-89
2023/01/04 05:06:51;;;;;;;5.40;3.27;;;6.70;99.90;;;;;;5064616;28;20195;-90
2023/01/04 05:09:17;;;;;;;3.37;2.93;;;6.80;99.90;;;;;;5052283;28;20245;-88
2023/01/04 05:14:27;;;;;;;3.27;2.97;;;6.80;99.90;;;;;;5051374;28;20453;-88
2023/01/04 05:16:53;;;;;;;4.37;2.73;;;6.80;99.90;;;;;;5062375;28;20243;-90
2023/01/04 05:19:18;;;;;;;2.77;2.57;;;6.90;99.90;;;;;;5048340;28;20211;-87
2023/01/04 05:21:44;;;;;;;3.03;2.73;;;6.90;99.90;;;;;;5056392;28;20216;-88
2023/01/04 05:24:11;;;;;;;3.03;2.83;;;7.00;99.90;;;;;;5062242;28;20245;-91
2023/01/04 05:26:37;;;;;;;2.87;2.67;;;7.00;99.90;;;;;;5064139;28;20188;-91
2023/01/04 05:29:03;;;;;;;2.83;2.63;;;7.00;99.90;;;;;;5064505;28;20177;-91
2023/01/04 05:31:29;;;;;;;3.53;2.63;;;6.90;99.90;;;;;;5058718;28;20208;-91
2023/01/04 05:33:55;;;;;;;2.70;2.33;;;6.90;99.90;;;;;;5054380;28;20190;-87
2023/01/04 05:36:20;;;;;;;3.20;2.90;;;7.00;99.90;;;;;;5050159;28;20606;-87
2023/01/04 05:38:46;;;;;;;3.00;2.80;;;7.00;99.90;;;;;;5057087;28;20246;-88
2023/01/04 05:43:56;;;;;;;2.63;2.43;;;7.00;99.90;;;;;;5057134;28;20187;-88
2023/01/04 05:46:22;;;;;;;3.07;2.60;;;7.00;99.90;;;;;;5058313;28;20176;-88
2023/01/04 05:48:48;;;;;;;3.60;2.50;;;7.10;99.90;;;;;;5052724;28;20193;-86
2023/01/04 05:51:13;;;;;;;2.60;2.40;;;7.10;99.90;;;;;;5053056;28;20211;-89
2023/01/04 05:53:39;;;;;;;2.90;2.60;;;7.20;99.90;;;;;;5046568;28;20180;-87
2023/01/04 05:56:05;;;;;;;2.70;2.33;;;7.30;99.90;;;;;;5028064;28;20193;-88
2023/01/04 05:58:32;;;;;;;2.73;2.13;;;7.30;99.90;;;;;;5059840;28;20192;-89
2023/01/04 06:00:58;;;;;;;3.87;2.50;;;7.20;99.90;;;;;;5044576;28;20221;-88
2023/01/04 06:03:24;;;;;;;3.60;2.43;;;7.20;99.90;;;;;;5055919;28;20252;-87
2023/01/04 06:05:52;;;;;;;2.57;2.37;;;7.30;99.90;;;;;;5054277;28;20187;-90
2023/01/04 06:08:18;;;;;;;2.77;1.90;;;7.30;99.90;;;;;;5057657;28;20172;-89
2023/01/04 06:10:50;;;;;;;2.73;2.17;;;7.30;99.90;;;;;;5055872;28;20281;-88
2023/01/04 06:13:16;;;;;;;3.13;2.30;;;7.40;99.90;;;;;;5053812;28;20206;-88
2023/01/04 06:15:43;;;;;;;3.60;2.13;;;7.50;99.90;;;;;;5054395;28;20267;-88
2023/01/04 06:18:09;;;;;;;2.20;2.00;;;7.50;99.90;;;;;;5061184;28;20662;-89
2023/01/04 06:20:35;;;;;;;3.67;2.10;;;7.50;99.90;;;;;;5056811;28;20215;-88
2023/01/04 06:23:01;;;;;;;1.90;1.80;;;7.50;99.90;;;;;;5047475;28;20184;-88
2023/01/04 06:25:26;;;;;;;2.53;2.07;;;7.50;99.90;;;;;;5053305;28;20180;-89
2023/01/04 06:27:52;;;;;;;2.73;2.40;;;7.60;99.90;;;;;;5055177;28;20249;-88
2023/01/04 06:30:18;;;;;;;2.00;1.80;;;7.50;99.90;;;;;;5063726;28;20188;-89
2023/01/04 06:32:43;;;;;;;3.20;2.00;;;7.60;99.90;;;;;;5065336;28;20184;-88
2023/01/04 06:35:09;;;;;;;2.80;1.97;;;7.70;99.90;;;;;;5054233;28;20184;-89
2023/01/04 06:37:35;;;;;;;1.93;1.73;;;7.60;99.90;;;;;;5053700;28;20184;-89
2023/01/04 06:40:00;;;;;;;1.87;1.77;;;7.70;99.90;;;;;;5061376;28;20187;-89
2023/01/04 06:42:44;;;;;;;1.87;1.60;;;7.90;99.90;;;;;;5058044;28;20270;-89
2023/01/04 06:45:11;;;;;;;2.03;1.83;;;7.70;99.90;;;;;;5059122;28;20172;-88
2023/01/04 06:47:38;;;;;;;2.10;1.90;;;7.80;99.90;;;;;;5063567;28;20196;-89
2023/01/04 06:50:04;;;;;;;2.30;1.80;;;7.80;99.90;;;;;;5059937;28;20196;-88
2023/01/04 06:52:30;;;;;;;4.60;1.93;;;7.90;99.70;;;;;;5060665;28;20200;-89
2023/01/04 06:54:56;;;;;;;2.77;1.90;;;7.80;99.90;;;;;;5053081;28;20194;-88
2023/01/04 06:57:21;;;;;;;1.93;1.83;;;7.90;99.60;;;;;;5060141;28;20295;-89
2023/01/04 06:59:47;;;;;;;2.77;1.73;;;7.80;99.50;;;;;;5052456;28;20181;-89
2023/01/04 07:02:14;;;;;;;1.90;1.80;;;7.80;99.30;;;;;;5052263;28;20204;-89
2023/01/04 07:04:40;;;;;;;2.10;1.90;;;7.90;99.60;;;;;;5057378;28;20187;-89
2023/01/04 07:07:06;;;;;;;2.50;1.97;;;8.00;98.50;;;;;;5061688;28;20173;-88
2023/01/04 07:09:31;;;;;;;3.27;1.90;;;8.00;98.10;;;;;;5056233;28;20236;-88
2023/01/04 07:11:57;;;;;;;2.03;1.50;;;8.00;98.60;;;;;;5057396;28;20235;-88
2023/01/04 07:14:23;;;;;;;2.00;1.70;;;8.00;97.80;;;;;;5053538;28;20725;-88
2023/01/04 07:16:49;;;;;;;3.00;1.90;;;8.00;99.00;;;;;;5048575;28;20519;-90
2023/01/04 07:19:15;;;;;;;1.73;1.63;;;7.90;99.50;;;;;;5056225;28;20192;-91
2023/01/04 07:21:41;;;;;;;2.47;1.80;;;8.00;98.90;;;;;;5054509;28;20227;-89
2023/01/04 07:24:06;;;;;;;3.87;2.10;;;7.90;99.40;;;;;;5064011;28;20240;-88
2023/01/04 07:26:33;;;;;;;3.87;1.57;;;7.90;99.90;;;;;;5057667;28;20184;-91
2023/01/04 07:29:15;;;;;;;2.00;1.90;;;7.90;99.90;;;;;;5056000;28;20216;-90
2023/01/04 07:31:42;;;;;;;3.83;2.10;;;8.10;99.90;;;;;;5056253;28;20292;-88
2023/01/04 07:34:08;;;;;;;2.80;2.30;;;8.00;99.50;;;;;;5051051;28;20676;-89
2023/01/04 07:36:34;;;;;;;3.30;2.40;;;8.00;99.90;;;;;;5058238;28;20188;-88
2023/01/04 07:39:00;;;;;;;1.87;1.77;;;8.00;99.90;;;;;;5062186;28;20196;-89
2023/01/04 07:41:26;;;;;;;2.83;1.90;;;8.00;99.90;;;;;;5057545;28;20211;-89
2023/01/04 07:43:51;;;;;;;3.53;2.43;;;7.90;99.90;;;;;;5059328;28;20719;-89
2023/01/04 07:46:17;;;;;;;3.47;3.10;;;8.00;99.90;;;;;;5059074;28;20312;-88
2023/01/04 07:48:43;;;;;;;2.80;2.60;;;8.00;99.90;;;;;;5041004;28;20715;-89
2023/01/04 07:51:08;;;;;;;2.10;1.90;;;8.10;99.90;;;;;;5061888;28;20207;-90
2023/01/04 07:53:34;;;;;;;3.17;1.93;;;8.00;99.90;;;;;;5056061;28;20181;-89
2023/01/04 07:56:00;;;;;;;2.17;1.60;;;8.00;99.90;;;;;;5059289;28;20226;-90
2023/01/04 07:58:30;;;;;;;2.90;1.87;;;8.00;99.90;;;;;;5059355;28;20222;-89
2023/01/04 08:00:56;;;;;;;2.10;1.97;;;8.00;99.90;;;;;;5061977;28;20217;-88
2023/01/04 08:03:22;;;;;;;2.37;2.03;;;8.00;99.90;;;;;;5045415;28;20184;-89
2023/01/04 08:05:48;;;;;;;2.10;1.83;;;8.10;99.90;;;;;;5057950;28;20195;-89
2023/01/04 08:08:13;;;;;;;3.70;1.80;;;8.10;99.90;;;;;;5060801;28;20192;-89
2023/01/04 08:10:40;;;;;;;2.03;1.70;;;8.00;99.90;;;;;;5048602;28;20277;-89
2023/01/04 08:13:06;;;;;;;3.87;2.20;;;8.00;99.90;;;;;;5061116;28;20216;-89
2023/01/04 08:15:32;;;;;;;2.17;1.97;;;8.00;99.90;;;;;;5064801;28;20184;-89
2023/01/04 08:17:57;;;;;;;3.63;1.70;;;8.10;99.90;;;;;;5055794;28;20212;-89
2023/01/04 08:20:23;;;;;;;3.27;2.57;;;8.10;99.80;;;;;;5060550;28;20264;-88
2023/01/04 08:22:50;;;;;;;2.23;2.07;;;8.10;99.90;;;;;;5052799;28;20877;-89
2023/01/04 08:25:16;;;;;;;3.50;2.10;;;8.20;99.30;;;;;;5056666;28;20193;-88
2023/01/04 08:27:42;;;;;;;3.67;1.60;;;8.20;99.80;;;;;;5052178;28;20191;-88
2023/01/04 08:30:08;;;;;;;3.63;1.63;;;8.30;98.70;;;;;;5046794;28;20216;-87
2023/01/04 08:32:34;;;;;;;1.87;1.77;;;8.30;98.00;;;;;;5057614;28;20252;-87
2023/01/04 08:34:59;;;;;;;6.30;4.73;;;8.30;98.00;;;;;;5055249;28;20661;-88
2023/01/04 08:37:25;;;;;;;2.73;2.00;;;8.40;97.30;;;;;;5043524;28;20199;-88
2023/01/04 08:39:51;;;;;;;2.00;1.90;;;8.30;97.00;;;;;;5056952;28;20681;-87
2023/01/04 08:42:17;;;;;;;2.07;1.90;;;8.40;96.90;;;;;;5044153;28;20603;-88
2023/01/04 08:44:42;;;;;;;4.17;1.83;;;8.50;96.80;;;;;;5060654;28;20636;-88
2023/01/04 08:47:08;;;;;;;2.63;1.90;;;8.50;95.60;;;;;;5043269;28;20189;-87
2023/01/04 08:49:34;;;;;;;3.47;1.83;;;8.60;96.00;;;;;;5047508;28;20184;-88
2023/01/04 08:52:00;;;;;;;1.80;1.70;;;8.50;96.60;;;;;;5051330;28;20299;-89
2023/01/04 08:54:26;;;;;;;1.90;1.80;;;8.60;95.80;;;;;;5058488;28;20199;-88
2023/01/04 08:57:00;;;;;;;1.77;1.63;;;8.50;96.70;;;;;;5054059;28;20212;-90
2023/01/04 08:59:26;;;;;;;3.63;3.30;;;8.50;95.70;;;;;;5056454;28;20180;-88
2023/01/04 09:01:52;;;;;;;3.03;2.20;;;8.50;96.70;;;;;;5062252;28;20215;-89
2023/01/04 09:04:18;;;;;;;2.70;1.97;;;8.60;96.90;;;;;;5064436;28;20286;-88
2023/01/04 09:06:44;;;;;;;3.33;2.00;;;8.70;95.80;;;;;;5056496;28;20189;-89
2023/01/04 09:09:10;;;;;;;3.23;1.73;;;8.60;96.20;;;;;;5052129;28;20193;-91
2023/01/04 09:11:37;;;;;;;2.10;2.00;;;8.60;96.20;;;;;;5057361;28;20215;-87
2023/01/04 09:14:04;;;;;;;2.47;1.80;;;8.60;95.90;;;;;;5068554;28;20193;-88
2023/01/04 09:16:32;;;;;;;1.63;1.53;;;8.70;96.60;;;;;;5049646;28;20188;-88
2023/01/04 09:18:58;;;;;;;2.50;2.17;;;8.70;96.30;;;;;;5056353;28;20183;-89
2023/01/04 09:21:24;;;;;;;2.60;1.93;;;8.70;95.70;;;;;;5063835;28;20296;-88
2023/01/04 09:23:50;;;;;;;3.23;2.57;;;8.80;96.00;;;;;;5053602;28;20199;-88
2023/01/04 09:26:21;;;;;;;2.23;2.03;;;8.80;95.50;;;;;;5069567;28;20554;-89
2023/01/04 09:28:47;;;;;;;2.30;1.73;;;8.80;95.80;;;;;;5050852;28;20184;-91
2023/01/04 09:31:18;;;;;;;2.33;2.00;;;8.90;95.40;;;;;;5069164;28;20208;-90
2023/01/04 09:33:45;;;;;;;1.70;1.60;;;8.80;96.10;;;;;;5059125;28;20193;-88
2023/01/04 09:36:14;;;;;;;2.37;1.83;;;8.90;95.10;;;;;;5055057;28;20185;-88
2023/01/04 09:38:40;;;;;;;1.73;1.63;;;8.90;93.00;;;;;;5071244;28;20195;-86
2023/01/04 09:41:24;;;;;;;2.27;1.70;;;9.00;92.50;;;;;;5046555;28;20212;-88
2023/01/04 09:43:49;;;;;;;2.43;1.90;;;9.10;91.00;;;;;;5050995;28;20215;-88
2023/01/04 09:46:40;;;;;;;2.60;1.77;;;9.00;91.40;;;;;;5056883;28;20181;-89
2023/01/04 09:49:30;;;;;;;1.80;1.60;;;9.20;89.70;;;;;;5048915;28;20181;-88
2023/01/04 09:52:02;;;;;;;2.77;1.73;;;9.20;89.80;;;;;;5043034;28;20683;-88
2023/01/04 09:54:35;;;;;;;2.60;1.90;;;9.20;88.90;;;;;;5039389;28;20248;-88
2023/01/04 09:57:02;;;;;;;2.13;1.70;;;9.30;89.10;;;;;;5039925;28;20208;-88
2023/01/04 09:59:31;;;;;;;2.90;1.73;;;9.30;88.40;;;;;;5051083;28;20204;-88
2023/01/04 10:02:08;;;;;;;1.83;1.60;;;9.30;88.50;;;;;;5056178;28;20230;-89
2023/01/04 10:04:48;;;;;;;3.17;1.83;;;9.50;86.00;;;;;;5054570;28;20203;-87
2023/01/04 10:07:26;;;;;;;1.63;1.50;;;9.60;85.10;;;;;;5063336;28;20239;-88
2023/01/04 10:09:52;;;;;;;7.63;6.10;;;9.60;86.40;;;;;;5058082;28;20180;-88
2023/01/04 10:12:25;;;;;;;1.97;1.60;;;9.60;87.00;;;;;;5055796;28;20231;-88
2023/01/04 10:14:56;;;;;;;3.03;1.73;;;9.60;85.60;;;;;;5062303;28;20188;-89
2023/01/04 10:18:01;;;;;;;3.53;1.90;;;9.70;85.70;;;;;;5060492;28;20195;-89
2023/01/04 10:20:29;;;;;;;1.63;1.53;;;9.60;86.40;;;;;;5012365;28;20220;-88
2023/01/04 10:23:14;;;;;;;1.87;1.77;;;9.60;86.30;;;;;;5054017;28;20188;-88
2023/01/04 10:25:54;;;;;;;1.67;1.50;;;9.60;86.30;;;;;;5060309;28;20190;-88
2023/01/04 10:28:30;;;;;;;1.90;1.70;;;9.60;86.30;;;;;;5044894;28;20287;-89
2023/01/04 10:31:08;;;;;;;3.80;1.67;;;9.60;86.00;;;;;;5049225;28;20207;-88
2023/01/04 10:34:03;;;;;;;1.47;1.37;;;9.60;86.20;;;;;;5053751;28;20172;-91
2023/01/04 10:36:33;;;;;;;2.37;1.70;;;9.70;85.40;;;;;;5037418;28;20208;-88
2023/01/04 10:39:13;;;;;;;1.77;1.40;;;9.60;86.90;;;;;;5055565;28;20160;-88
2023/01/04 10:42:03;;;;;;;2.87;1.80;;;9.70;86.50;;;;;;5035271;28;20256;-92
2023/01/04 10:44:37;;;;;;;2.30;2.00;;;9.70;86.70;;;;;;5022232;28;20200;-88
2023/01/04 10:47:12;;;;;;;1.90;1.80;;;9.70;87.10;;;;;;5063921;28;20211;-89
2023/01/04 10:49:44;;;;;;;2.60;1.87;;;9.70;86.80;;;;;;5049915;28;20180;-88
2023/01/04 10:53:00;;;;;;;3.47;1.70;;;9.70;86.00;;;;;;5090447;23;20715;-87
2023/01/04 10:56:08;;;;;;;1.67;1.43;;;9.80;87.00;;;;;;5081160;28;20171;-87
2023/01/04 10:59:25;;;;;;;;;;;;;;;;;;;;;
2023/01/04 11:02:50;;;;;;;3.03;2.30;;;9.70;87.70;;;;;;5035686;28;20283;-87
2023/01/04 11:06:20;;;;;;;3.10;1.70;;;9.70;89.00;;;;;;4996676;28;20193;-87
2023/01/04 11:09:00;;;;;;;1.70;1.60;;;9.60;89.40;;;;;;4982507;28;20198;-86
2023/01/04 11:11:47;;;;;;;2.30;1.73;;;9.70;87.60;;;;;;5088314;28;20183;-86
2023/01/04 11:14:35;;;;;;;1.93;1.77;;;9.70;88.60;;;;;;5077932;28;20202;-87
2023/01/04 11:17:24;;;;;;;1.60;1.50;;;9.70;88.60;;;;;;5076562;28;20219;-87
2023/01/04 11:20:02;;;;;;;1.60;1.50;;;9.70;89.50;;;;;;5078666;28;20199;-86
2023/01/04 11:22:53;;;;;;;2.10;1.80;;;9.60;89.70;;;;;;5082240;28;20205;-85
2023/01/04 11:26:02;;;;;;;2.87;1.77;;;9.70;89.70;;;;;;5087159;28;20188;-86
2023/01/04 11:29:09;;;;;;;3.77;1.67;;;9.70;89.10;;;;;;5093515;28;20286;-87
2023/01/04 11:32:00;;;;;;;2.00;1.70;;;9.70;89.30;;;;;;5081536;28;20195;-86
2023/01/04 11:37:40;;;;;;;1.70;1.60;;;9.70;89.30;;;;;;5093362;23;20303;-88
2023/01/04 11:40:24;;;;;;;2.03;1.70;;;9.70;88.40;;;;;;5099366;28;20187;-88
2023/01/04 11:43:19;;;;;;;1.77;1.67;;;9.70;88.50;;;;;;5073833;28;20259;-87
2023/01/04 11:46:06;;;;;;;1.80;1.70;;;9.80;88.40;;;;;;5075277;28;20176;-89
2023/01/04 11:48:37;;;;;;;2.70;1.60;;;9.70;88.70;;;;;;5087726;28;20194;-87
2023/01/04 11:51:04;;;;;;;1.70;1.60;;;9.80;89.70;;;;;;5073622;28;20242;-89
2023/01/04 11:53:35;;;;;;;1.80;1.70;;;9.90;88.00;;;;;;5071858;28;20222;-86
2023/01/04 11:56:13;;;;;;;2.67;1.53;;;10.00;88.20;;;;;;5073392;28;20270;-88
2023/01/04 11:58:40;;;;;;;2.90;1.80;;;9.80;89.20;;;;;;5072635;28;20217;-86
2023/01/04 12:01:19;;;;;;;2.10;1.77;;;9.90;89.80;;;;;;5071913;28;20216;-88
2023/01/04 12:03:45;;;;;;;1.83;1.30;;;9.80;89.20;;;;;;5064701;28;20188;-88
2023/01/04 12:06:21;;;;;;;1.60;1.50;;;9.80;89.60;;;;;;5070321;28;20184;-89
2023/01/04 12:08:47;;;;;;;2.07;1.50;;;9.80;91.40;;;;;;5076418;28;20199;-88
2023/01/04 12:11:34;;;;;;;1.60;1.50;;;9.90;89.80;;;;;;5081182;28;20786;-89
2023/01/04 12:14:02;;;;;;;1.93;1.70;;;9.80;90.80;;;;;;5066934;28;20263;-88
2023/01/04 12:16:48;;;;;;;1.70;1.60;;;9.90;91.50;;;;;;5072347;28;20180;-87
2023/01/04 12:19:18;;;;;;;2.00;1.80;;;9.80;91.40;;;;;;5088328;28;20191;-87
2023/01/04 12:21:48;;;;;;;1.53;1.50;;;9.90;91.70;;;;;;5054809;28;20212;-88
2023/01/04 12:24:23;;;;;;;1.60;1.50;;;9.90;90.80;;;;;;5077820;28;20180;-87
2023/01/04 12:26:51;;;;;;;2.10;1.47;;;10.00;89.30;;;;;;5063172;28;20192;-88
2023/01/04 12:29:53;;;;;;;1.73;1.57;;;10.00;90.50;;;;;;5078326;28;20177;-88
2023/01/04 12:32:22;;;;;;;2.93;1.80;;;10.00;90.60;;;;;;5066001;28;20218;-90
2023/01/04 12:34:49;;;;;;;2.27;2.07;;;10.10;89.80;;;;;;5060799;28;20202;-88
2023/01/04 12:37:44;;;;;;;6.77;3.97;;;10.20;89.50;;;;;;5059402;28;20204;-88
2023/01/04 12:40:45;;;;;;;1.67;1.60;;;10.00;89.90;;;;;;5067234;28;20662;-90
2023/01/04 12:43:13;;;;;;;4.33;3.43;;;10.30;88.00;;;;;;5071102;28;20184;-88
2023/01/04 12:49:02;;;;;;;3.87;2.77;;;10.20;89.50;;;;;;5069997;28;20179;-88
2023/01/04 12:51:24;;;;;;;1.60;1.50;;;10.10;90.10;;;;;;5084213;28;20230;-88
2023/01/04 12:54:01;;;;;;;3.53;2.50;;;10.20;89.90;;;;;;5057803;28;20200;-88
2023/01/04 12:57:05;;;;;;;1.40;1.30;;;10.30;89.70;;;;;;5082916;28;20184;-88
2023/01/04 12:59:35;;;;;;;3.37;2.93;;;10.20;89.50;;;;;;5084903;28;20243;-88
2023/01/04 13:02:46;;;;;;;1.87;1.60;;;10.30;89.20;;;;;;5069962;28;20226;-88
2023/01/04 13:05:35;;;;;;;4.70;3.20;;;10.30;90.10;;;;;;5078253;28;20240;-88
2023/01/04 13:08:08;;;;;;;2.20;2.00;;;10.20;90.70;;;;;;5084832;28;20180;-89
2023/01/04 13:10:35;;;;;;;2.07;1.70;;;10.20;91.60;;;;;;5069475;28;20212;-90
2023/01/04 13:13:06;;;;;;;2.63;1.83;;;10.20;90.80;;;;;;5067809;28;20207;-90
2023/01/04 13:15:44;;;;;;;1.90;1.80;;;10.20;91.50;;;;;;5078433;28;20248;-88
2023/01/04 13:18:26;;;;;;;4.93;2.00;;;10.40;89.80;;;;;;5065362;28;20282;-91
2023/01/04 13:20:52;;;;;;;2.00;1.80;;;10.40;88.90;;;;;;5085439;28;20233;-89
2023/01/04 13:23:19;;;;;;;4.03;2.00;;;10.40;90.20;;;;;;5063451;28;20188;-88
2023/01/04 13:25:45;;;;;;;2.90;2.20;;;10.40;90.40;;;;;;5051786;28;20199;-89
2023/01/04 13:28:17;;;;;;;2.87;1.80;;;10.40;90.00;;;;;;5080024;28;20183;-88
2023/01/04 13:30:45;;;;;;;2.20;2.00;;;10.40;91.00;;;;;;5073896;28;20255;-89
2023/01/04 13:33:20;;;;;;;2.50;1.70;;;10.30;91.20;;;;;;5075249;28;20180;-88
2023/01/04 13:36:08;;;;;;;1.80;1.70;;;10.30;91.50;;;;;;5087848;28;20186;-89
2023/01/04 13:38:36;;;;;;;2.30;1.60;;;10.40;92.40;;;;;;5054602;28;20235;-88
2023/01/04 13:41:05;;;;;;;2.10;1.80;;;10.50;90.40;;;;;;5068360;28;20200;-90
2023/01/04 13:43:43;;;;;;;1.90;1.70;;;10.50;90.70;;;;;;5079743;28;20181;-89
2023/01/04 13:46:19;;;;;;;2.20;2.00;;;10.60;90.40;;;;;;5065255;28;20183;-89
2023/01/04 13:48:52;;;;;;;3.77;2.23;;;10.50;91.20;;;;;;5077326;28;20171;-89
2023/01/04 13:51:29;;;;;;;2.97;2.00;;;10.50;91.20;;;;;;5060063;28;20212;-88
2023/01/04 13:53:58;;;;;;;2.70;1.70;;;10.50;92.10;;;;;;5056748;28;20199;-90
2023/01/04 13:56:32;;;;;;;1.87;1.77;;;10.60;90.50;;;;;;5071690;28;20721;-91
2023/01/04 13:58:59;;;;;;;2.00;1.90;;;10.60;91.10;;;;;;5074847;28;20259;-89
2023/01/04 14:01:30;;;;;;;2.97;1.80;;;10.50;90.70;;;;;;5083901;28;20223;-88
2023/01/04 14:04:01;;;;;;;1.83;1.73;;;10.50;91.50;;;;;;5086469;28;20206;-88
2023/01/04 14:06:32;;;;;;;2.00;1.90;;;10.50;91.70;;;;;;5086359;28;20180;-88
2023/01/04 14:09:04;;;;;;;3.80;2.07;;;10.60;90.20;;;;;;5076973;28;20184;-88
2023/01/04 14:11:58;;;;;;;2.47;1.90;;;10.60;90.70;;;;;;5070815;28;20220;-88
2023/01/04 14:14:42;;;;;;;3.30;1.73;;;10.60;91.70;;;;;;5052072;28;20226;-90
2023/01/04 14:17:29;;;;;;;1.90;1.80;;;10.50;92.60;;;;;;5074680;28;20180;-90
2023/01/04 14:20:05;;;;;;;1.70;1.60;;;10.60;91.00;;;;;;5057009;28;20195;-89